This is the latest recevied weather packets stored in our database for station/object HK5VD-30. If no packets are shown the sender has not sent any weather packets the latest 10 day(s).
| Time | Temp. | Humidity | Pressure | Rain* | Wind** | Luminosity | Snow |
|---|---|---|---|---|---|---|---|
| 1777890816 | 21.11° C | 10% | - | 0 mm | - | - | - |
| 1777889015 | 20.56° C | 10% | - | 0 mm | - | - | - |
| 1777887214 | 22.78° C | 94% | 1013 hPa | 0 mm | - | - | - |
| 1777885413 | 22.22° C | 94% | 1012 hPa | 0 mm | - | - | - |
| 1777883612 | 21.67° C | 94% | 1012 hPa | 0 mm | - | - | - |
| 1777881811 | 21.11° C | 94% | 1012 hPa | 0 mm | - | - | - |
| 1777880010 | 20.56° C | 94% | 1013 hPa | 0 mm | - | - | - |
| 1777878209 | 22.78° C | 10% | - | 0 mm | - | - | - |
| 1777876408 | 22.22° C | 10% | - | 0 mm | - | - | - |
| 1777874607 | 21.67° C | 10% | - | 0 mm | - | - | - |
| 1777872806 | 21.11° C | 10% | - | 0 mm | - | - | - |
| 1777871005 | 20.56° C | 10% | - | 0 mm | - | - | - |
| 1777869204 | 23.89° C | 88% | 1014 hPa | 0 mm | - | - | - |
| 1777867403 | 23.33° C | 88% | 1015 hPa | 0 mm | - | - | - |
| 1777865602 | 22.78° C | 88% | 1015 hPa | 0 mm | - | - | - |
| 1777863801 | 22.22° C | 88% | 1014 hPa | 0 mm | - | - | - |
| 1777862000 | 21.67° C | 88% | 1014 hPa | 0 mm | - | - | - |
| 1777860199 | 23.89° C | 83% | 1014 hPa | 0 mm | - | - | - |
| 1777858398 | 23.33° C | 83% | 1014 hPa | 0 mm | - | - | - |
| 1777856596 | 22.78° C | 83% | 1012 hPa | 0 mm | - | - | - |
| 1777854796 | 25.56° C | 65% | 1011 hPa | 0 mm | - | - | - |
| 1777852994 | 26.67° C | 61% | 1011 hPa | 0 mm | - | - | - |
| 1777851193 | 26.67° C | 61% | 1011 hPa | 0 mm | - | - | - |
| 1777849392 | 28.89° C | 58% | 1010 hPa | 0 mm | - | - | - |
| 1777847591 | 28.89° C | 58% | 1010 hPa | 0 mm | - | - | - |
* Rain latest hour (hover to see other rain measurements)
** Current wind speed in m/s (hover to see current wind gust speed)